Time;durP1;ratioP1;P1;durP2;ratioP2;P2;SDS_P1;SDS_P2;PMS_P1;PMS_P2;Temp;Humidity;BMP_temperature;BMP_pressure;BME280_temperature;BME280_humidity;BME280_pressure;Samples;Min_cycle;Max_cycle;Signal;HPM_P1;HPM_P2
2022/06/05 00:00:26;;;;;;;6.45;3.30;;;17.60;99.90;;;;;;5109252;28;20081;-84
2022/06/05 00:03:02;;;;;;;6.53;3.33;;;17.60;99.90;;;;;;5110769;28;20422;-84
2022/06/05 00:05:43;;;;;;;5.50;3.80;;;17.60;99.90;;;;;;5109645;28;20024;-84
2022/06/05 00:08:21;;;;;;;6.43;3.70;;;17.60;99.90;;;;;;5110657;28;20176;-85
2022/06/05 00:10:54;;;;;;;7.18;3.78;;;17.50;99.90;;;;;;5110944;28;20047;-84
2022/06/05 00:13:40;;;;;;;7.20;3.70;;;17.50;99.90;;;;;;5110800;28;20472;-84
2022/06/05 00:16:07;;;;;;;5.78;3.45;;;17.50;99.90;;;;;;5111182;28;20028;-85
2022/06/05 00:18:34;;;;;;;6.60;3.55;;;17.40;99.90;;;;;;5109821;28;20051;-83
2022/06/05 00:21:00;;;;;;;7.97;3.70;;;17.40;99.90;;;;;;5091971;28;20032;-83
2022/06/05 00:23:26;;;;;;;5.25;4.03;;;17.40;99.90;;;;;;5110336;28;20575;-84
2022/06/05 00:25:56;;;;;;;8.10;4.40;;;17.50;99.90;;;;;;5110156;28;20019;-84
2022/06/05 00:28:50;;;;;;;12.50;5.22;;;17.50;99.90;;;;;;5108592;28;20024;-84
2022/06/05 00:31:16;;;;;;;7.82;4.20;;;17.50;99.90;;;;;;5109392;28;20089;-83
2022/06/05 00:33:42;;;;;;;7.38;4.40;;;17.60;99.90;;;;;;5110291;28;20031;-84
2022/06/05 00:36:26;;;;;;;8.05;4.55;;;17.60;99.90;;;;;;5109023;28;20049;-84
2022/06/05 00:39:20;;;;;;;9.05;3.95;;;17.70;99.90;;;;;;5109385;28;20080;-84
2022/06/05 00:42:09;;;;;;;7.07;4.10;;;17.70;99.90;;;;;;5109490;28;20142;-84
2022/06/05 00:44:38;;;;;;;6.50;4.25;;;17.80;99.90;;;;;;5109555;28;20019;-84
2022/06/05 00:47:05;;;;;;;5.43;3.70;;;17.90;99.90;;;;;;5109273;28;20113;-83
2022/06/05 00:49:39;;;;;;;4.78;3.83;;;17.80;99.90;;;;;;5110542;28;20023;-84
2022/06/05 00:52:06;;;;;;;9.82;4.90;;;17.90;99.90;;;;;;5107787;28;20054;-84
2022/06/05 00:54:32;;;;;;;9.70;5.13;;;17.90;99.90;;;;;;5110154;28;20540;-84
2022/06/05 00:56:58;;;;;;;8.15;4.60;;;17.90;99.90;;;;;;5110208;28;20024;-84
2022/06/05 00:59:24;;;;;;;6.18;3.88;;;18.00;99.90;;;;;;5108989;28;20024;-84
2022/06/05 01:01:51;;;;;;;6.75;4.38;;;18.00;99.90;;;;;;5110536;28;20031;-83
2022/06/05 01:04:18;;;;;;;7.75;4.72;;;18.00;99.90;;;;;;5109368;28;20076;-85
2022/06/05 01:06:44;;;;;;;9.15;4.45;;;18.10;99.90;;;;;;5109822;28;20027;-86
2022/06/05 01:09:10;;;;;;;11.77;5.25;;;18.00;99.90;;;;;;5110181;28;20051;-85
2022/06/05 01:12:05;;;;;;;9.65;4.03;;;18.10;99.90;;;;;;5110402;28;20024;-85
2022/06/05 01:14:48;;;;;;;8.63;4.47;;;18.10;99.90;;;;;;5089257;28;20220;-83
2022/06/05 01:17:30;;;;;;;13.48;4.65;;;18.10;99.90;;;;;;5110300;28;20027;-83
2022/06/05 01:20:20;;;;;;;11.98;5.10;;;18.10;99.90;;;;;;5109689;28;20065;-85
2022/06/05 01:23:01;;;;;;;8.18;5.55;;;18.20;99.90;;;;;;5107794;28;20032;-84
2022/06/05 01:25:45;;;;;;;10.00;5.00;;;18.20;99.90;;;;;;5108347;28;20419;-84
2022/06/05 01:28:16;;;;;;;15.07;5.30;;;18.20;99.90;;;;;;5107306;28;20030;-85
2022/06/05 01:30:56;;;;;;;8.32;4.03;;;18.20;99.90;;;;;;5108420;28;20016;-84
2022/06/05 01:33:24;;;;;;;6.40;4.72;;;18.20;99.90;;;;;;5108954;28;20027;-83
2022/06/05 01:36:04;;;;;;;6.90;4.60;;;18.20;99.90;;;;;;5108211;28;20450;-83
2022/06/05 01:38:43;;;;;;;14.38;5.47;;;18.20;99.90;;;;;;5108286;28;20377;-84
2022/06/05 01:41:14;;;;;;;12.27;5.28;;;18.20;99.90;;;;;;5108544;28;20487;-83
2022/06/05 01:43:46;;;;;;;12.15;4.93;;;18.20;99.90;;;;;;5107934;28;20024;-83
2022/06/05 01:46:24;;;;;;;12.45;4.53;;;18.20;99.90;;;;;;5108452;28;20030;-81
2022/06/05 01:48:55;;;;;;;8.27;5.18;;;18.20;99.90;;;;;;5108440;28;20024;-81
2022/06/05 01:51:31;;;;;;;13.38;6.72;;;18.20;99.90;;;;;;5106527;28;20076;-82
2022/06/05 01:54:00;;;;;;;10.63;5.82;;;18.20;99.90;;;;;;5108550;28;20131;-82
2022/06/05 01:56:36;;;;;;;9.73;4.72;;;18.20;99.90;;;;;;5108318;28;20046;-83
2022/06/05 01:59:11;;;;;;;11.73;5.50;;;18.30;99.90;;;;;;5108768;28;20503;-86
2022/06/05 02:01:39;;;;;;;8.60;5.95;;;18.30;99.90;;;;;;5089230;28;20164;-86
2022/06/05 02:04:33;;;;;;;8.93;4.95;;;18.30;99.90;;;;;;5110903;28;20062;-86
2022/06/05 02:07:07;;;;;;;13.98;5.10;;;18.30;99.90;;;;;;5108557;28;20398;-85
2022/06/05 02:09:39;;;;;;;9.70;4.88;;;18.40;99.90;;;;;;5110342;28;20051;-83
2022/06/05 02:12:07;;;;;;;9.43;4.10;;;18.40;99.90;;;;;;5091172;28;20047;-85
2022/06/05 02:14:33;;;;;;;13.75;4.70;;;18.40;99.90;;;;;;5107445;28;20022;-84
2022/06/05 02:16:59;;;;;;;6.95;4.70;;;18.40;99.90;;;;;;5107600;28;20028;-83
2022/06/05 02:19:25;;;;;;;10.07;5.53;;;18.50;99.90;;;;;;5108649;28;20337;-82
2022/06/05 02:21:58;;;;;;;9.98;5.07;;;18.40;99.90;;;;;;5103256;28;20027;-82
2022/06/05 02:24:24;;;;;;;5.20;4.43;;;18.50;99.90;;;;;;5106756;27;20038;-80
2022/06/05 02:26:50;;;;;;;5.85;4.32;;;18.50;99.90;;;;;;5110855;27;20027;-83
2022/06/05 02:29:22;;;;;;;4.55;3.75;;;18.50;99.90;;;;;;5108052;27;20447;-83
2022/06/05 02:32:12;;;;;;;8.68;4.15;;;18.50;99.90;;;;;;5105406;27;20037;-83
2022/06/05 02:35:06;;;;;;;5.85;4.00;;;18.50;99.90;;;;;;5114000;27;20399;-83
2022/06/05 02:37:52;;;;;;;5.28;3.75;;;18.50;99.90;;;;;;5104014;28;20031;-84
2022/06/05 02:40:38;;;;;;;;;;;18.50;99.90;;;;;;5116477;27;20039;-84
2022/06/05 02:43:33;;;;;;;14.85;4.95;;;18.50;99.90;;;;;;5104366;28;19916;-84
2022/06/05 02:46:11;;;;;;;15.85;4.88;;;18.50;99.90;;;;;;5096249;28;20039;-85
2022/06/05 02:48:56;;;;;;;7.88;4.60;;;18.50;99.90;;;;;;5105715;28;20035;-85
2022/06/05 02:51:33;;;;;;;6.28;4.03;;;18.50;99.90;;;;;;5090970;28;20488;-85
2022/06/05 02:54:00;;;;;;;9.40;5.22;;;18.50;99.90;;;;;;5104549;28;20438;-87
2022/06/05 02:56:28;;;;;;;6.97;4.30;;;18.50;99.90;;;;;;5110365;28;20024;-87
2022/06/05 02:58:57;;;;;;;5.28;3.78;;;18.50;99.90;;;;;;5111120;28;20075;-85
2022/06/05 03:04:07;;;;;;;7.78;4.28;;;18.50;99.90;;;;;;5110317;28;20062;-87
2022/06/05 03:06:34;;;;;;;6.40;4.00;;;18.50;99.90;;;;;;5108828;28;20051;-86
2022/06/05 03:09:00;;;;;;;12.40;5.03;;;18.60;99.90;;;;;;5110394;28;20057;-84
2022/06/05 03:11:26;;;;;;;11.93;4.43;;;18.60;99.90;;;;;;5109822;28;20016;-86
2022/06/05 03:13:52;;;;;;;10.05;4.28;;;18.60;99.90;;;;;;5108939;28;20527;-85
2022/06/05 03:16:18;;;;;;;9.15;4.70;;;18.60;99.90;;;;;;5109166;28;20077;-87
2022/06/05 03:18:44;;;;;;;13.93;5.30;;;18.70;99.90;;;;;;5111048;28;20055;-87
2022/06/05 03:21:09;;;;;;;5.97;5.10;;;18.60;99.90;;;;;;5108442;28;20112;-86
2022/06/05 03:23:35;;;;;;;10.48;5.50;;;18.70;99.90;;;;;;5113333;28;20038;-86
2022/06/05 03:26:01;;;;;;;11.20;4.97;;;18.70;99.90;;;;;;5114404;28;20479;-87
2022/06/05 03:28:26;;;;;;;7.72;5.10;;;18.70;99.90;;;;;;5112866;28;20118;-86
2022/06/05 03:30:52;;;;;;;12.15;6.18;;;18.70;99.90;;;;;;5113402;28;20027;-86
2022/06/05 03:33:18;;;;;;;15.88;6.43;;;18.70;99.90;;;;;;5114144;28;20057;-86
2022/06/05 03:35:46;;;;;;;6.50;5.20;;;18.70;99.90;;;;;;5114285;28;20026;-86
2022/06/05 03:38:14;;;;;;;9.05;6.10;;;18.70;99.90;;;;;;5112557;28;20080;-87
2022/06/05 03:40:44;;;;;;;7.85;4.95;;;18.70;99.90;;;;;;5114306;28;20019;-86
2022/06/05 03:43:11;;;;;;;7.03;5.60;;;18.70;99.90;;;;;;5113967;28;20023;-86
2022/06/05 03:45:36;;;;;;;7.60;5.15;;;18.70;99.90;;;;;;5113119;28;20036;-86
2022/06/05 03:48:03;;;;;;;9.23;4.93;;;18.70;99.90;;;;;;5112205;28;20038;-85
2022/06/05 03:50:28;;;;;;;14.77;5.10;;;18.80;99.90;;;;;;5110693;28;20468;-83
2022/06/05 03:52:54;;;;;;;8.27;5.50;;;18.80;99.90;;;;;;5094779;28;20035;-85
2022/06/05 03:55:22;;;;;;;10.02;4.38;;;18.90;99.90;;;;;;5110557;28;20114;-85
2022/06/05 03:57:48;;;;;;;6.72;4.07;;;18.90;99.90;;;;;;5111854;28;20103;-84
2022/06/05 04:00:17;;;;;;;14.43;4.88;;;18.90;99.90;;;;;;5112166;28;20028;-84
2022/06/05 04:02:43;;;;;;;13.40;5.60;;;19.10;99.90;;;;;;5103985;28;20099;-85
2022/06/05 04:05:13;;;;;;;8.23;5.18;;;19.10;99.90;;;;;;5111918;28;20035;-86
2022/06/05 04:07:39;;;;;;;7.10;4.72;;;19.10;99.90;;;;;;5112099;28;20034;-82
2022/06/05 04:10:06;;;;;;;4.75;4.10;;;19.10;99.90;;;;;;5112179;28;20042;-85
2022/06/05 04:12:32;;;;;;;11.02;5.18;;;19.20;99.90;;;;;;5111775;28;20051;-85
2022/06/05 04:15:00;;;;;;;9.95;5.05;;;19.30;99.90;;;;;;5094856;28;20071;-85
2022/06/05 04:17:26;;;;;;;8.70;5.60;;;19.40;99.90;;;;;;5112557;28;20050;-86
2022/06/05 04:19:52;;;;;;;9.15;4.93;;;19.60;99.90;;;;;;5111878;28;20071;-84
2022/06/05 04:22:18;;;;;;;8.52;6.10;;;19.70;99.90;;;;;;5109935;28;20162;-83
2022/06/05 04:24:44;;;;;;;9.93;6.88;;;19.90;99.90;;;;;;5092538;28;20027;-84
2022/06/05 04:27:10;;;;;;;17.90;8.10;;;19.90;99.90;;;;;;5108735;28;20084;-82
2022/06/05 04:29:36;;;;;;;12.32;7.10;;;19.90;99.90;;;;;;5109907;28;20030;-82
2022/06/05 04:32:01;;;;;;;9.70;7.35;;;19.90;99.90;;;;;;5111517;28;20072;-81
2022/06/05 04:34:27;;;;;;;12.43;7.57;;;19.80;99.90;;;;;;5110534;28;20028;-84
2022/06/05 04:36:53;;;;;;;16.27;7.80;;;19.80;99.90;;;;;;5112236;28;20053;-82
2022/06/05 04:39:18;;;;;;;12.57;8.05;;;19.80;99.90;;;;;;5094285;28;20031;-85
2022/06/05 04:41:45;;;;;;;12.13;7.82;;;19.70;99.90;;;;;;5111117;28;20063;-85
2022/06/05 04:44:13;;;;;;;10.13;7.70;;;19.80;99.90;;;;;;5111040;28;20028;-84
2022/06/05 04:46:39;;;;;;;10.55;7.50;;;19.80;99.90;;;;;;5112230;28;20028;-85
2022/06/05 04:49:08;;;;;;;15.15;8.85;;;19.80;99.90;;;;;;5094093;28;20028;-85
2022/06/05 04:51:36;;;;;;;11.32;8.48;;;19.90;99.90;;;;;;5112518;28;20042;-85
2022/06/05 04:54:06;;;;;;;18.13;9.70;;;19.90;99.90;;;;;;5112358;28;20031;-85
2022/06/05 04:56:32;;;;;;;15.70;8.90;;;19.90;99.90;;;;;;5112164;28;20103;-84
2022/06/05 04:59:00;;;;;;;13.20;9.10;;;19.90;99.90;;;;;;5112190;28;20058;-84
2022/06/05 05:01:30;;;;;;;16.50;7.82;;;19.90;99.90;;;;;;5112494;28;20028;-85
2022/06/05 05:04:01;;;;;;;9.75;8.05;;;20.00;99.90;;;;;;5111063;28;20077;-85
2022/06/05 05:06:29;;;;;;;15.85;8.85;;;20.10;99.90;;;;;;5111919;28;20511;-85
2022/06/05 05:08:55;;;;;;;15.00;8.57;;;20.20;99.90;;;;;;5110674;28;20407;-85
2022/06/05 05:11:22;;;;;;;10.98;8.55;;;20.50;99.90;;;;;;5109581;28;20531;-85
2022/06/05 05:13:48;;;;;;;11.00;8.13;;;20.60;99.90;;;;;;5112565;28;20098;-83
2022/06/05 05:16:14;;;;;;;11.93;8.35;;;20.80;99.90;;;;;;5111315;28;20106;-84
2022/06/05 05:18:40;;;;;;;10.35;7.82;;;21.00;99.90;;;;;;5111324;28;20468;-84
2022/06/05 05:21:12;;;;;;;9.57;8.07;;;21.10;99.90;;;;;;5110919;28;20032;-83
2022/06/05 05:23:38;;;;;;;10.45;8.38;;;21.20;99.90;;;;;;5111219;28;20106;-83
2022/06/05 05:26:37;;;;;;;13.13;8.90;;;21.10;99.90;;;;;;5111025;28;20106;-83
2022/06/05 05:29:05;;;;;;;14.57;9.10;;;21.10;99.90;;;;;;5089945;28;20127;-84
2022/06/05 05:31:37;;;;;;;9.77;8.15;;;20.80;99.90;;;;;;5090969;28;20023;-82
2022/06/05 05:34:04;;;;;;;11.57;7.85;;;20.60;99.90;;;;;;5109897;28;20035;-82
2022/06/05 05:36:30;;;;;;;14.50;9.30;;;20.60;99.90;;;;;;5108678;28;20130;-82
2022/06/05 05:44:27;;;;;;;12.27;8.32;;;20.70;99.90;;;;;;5109408;28;20146;-83
2022/06/05 05:46:52;;;;;;;9.00;7.07;;;20.80;99.90;;;;;;5108693;28;20035;-83
2022/06/05 05:49:18;;;;;;;10.60;7.22;;;20.80;99.90;;;;;;5108605;28;20028;-83
2022/06/05 05:51:44;;;;;;;10.10;7.70;;;20.80;99.90;;;;;;5108317;28;20028;-80
2022/06/05 05:54:11;;;;;;;8.73;7.03;;;20.90;99.90;;;;;;5090226;28;20027;-82
2022/06/05 05:56:37;;;;;;;9.77;7.82;;;21.00;99.90;;;;;;5107022;28;20440;-81
2022/06/05 05:59:04;;;;;;;14.77;9.07;;;21.10;99.90;;;;;;5107720;28;20027;-82
2022/06/05 06:01:30;;;;;;;13.85;8.10;;;21.30;99.90;;;;;;5108368;28;20047;-81
2022/06/05 06:03:55;;;;;;;14.32;8.63;;;21.40;99.90;;;;;;5106837;28;20024;-82
2022/06/05 06:06:27;;;;;;;9.23;7.28;;;21.40;99.90;;;;;;5107789;28;20047;-81
2022/06/05 06:08:53;;;;;;;14.50;8.73;;;21.50;99.90;;;;;;5108146;28;20043;-81
2022/06/05 06:11:19;;;;;;;13.23;8.65;;;21.40;99.90;;;;;;5106659;28;20537;-84
2022/06/05 06:13:45;;;;;;;15.27;8.82;;;21.30;99.90;;;;;;5089317;28;20488;-84
2022/06/05 06:16:11;;;;;;;13.98;9.27;;;21.10;99.90;;;;;;5110235;28;20059;-84
2022/06/05 06:18:37;;;;;;;9.73;8.55;;;21.00;99.90;;;;;;5109303;28;20042;-83
2022/06/05 06:21:03;;;;;;;10.52;9.35;;;20.90;99.90;;;;;;5109135;28;20491;-82
2022/06/05 06:23:29;;;;;;;17.58;9.95;;;20.80;99.90;;;;;;5108949;28;20098;-83
2022/06/05 06:25:55;;;;;;;12.40;9.82;;;20.70;99.90;;;;;;5110017;28;20548;-82
2022/06/05 06:28:20;;;;;;;12.88;10.27;;;20.60;99.90;;;;;;5108693;28;20043;-83
2022/06/05 06:30:47;;;;;;;13.13;9.10;;;20.40;99.90;;;;;;5108416;28;20084;-85
2022/06/05 06:33:13;;;;;;;21.48;9.88;;;20.40;99.90;;;;;;5108787;28;20051;-81
2022/06/05 06:35:40;;;;;;;11.65;9.48;;;20.50;99.90;;;;;;5109933;28;20024;-82
2022/06/05 06:38:05;;;;;;;16.85;9.73;;;20.60;99.90;;;;;;5110102;28;20028;-83
2022/06/05 06:40:32;;;;;;;12.93;10.55;;;20.80;99.90;;;;;;5090874;28;20045;-83
2022/06/05 06:42:58;;;;;;;13.20;7.88;;;21.10;99.90;;;;;;5107101;28;20415;-84
2022/06/05 06:45:24;;;;;;;19.10;9.10;;;21.30;99.90;;;;;;5101605;28;20078;-83
2022/06/05 06:47:50;;;;;;;12.52;9.02;;;21.40;99.90;;;;;;5087434;28;20454;-83
2022/06/05 06:50:17;;;;;;;12.77;7.47;;;21.60;99.90;;;;;;5089350;28;20031;-85
2022/06/05 06:52:43;;;;;;;13.00;8.30;;;21.90;99.90;;;;;;5089115;28;20025;-84
2022/06/05 06:55:12;;;;;;;16.70;9.13;;;22.60;99.90;;;;;;5071141;28;20075;-84
2022/06/05 06:57:38;;;;;;;15.32;7.10;;;24.20;99.90;;;;;;5087543;28;20088;-84
2022/06/05 07:00:05;;;;;;;9.65;7.68;;;25.60;99.90;;;;;;5088117;28;20024;-85
2022/06/05 07:02:31;;;;;;;15.05;8.30;;;26.20;99.90;;;;;;5069803;28;20085;-83
2022/06/05 07:04:57;;;;;;;10.40;7.47;;;25.90;99.90;;;;;;5088758;28;20032;-83
2022/06/05 07:07:22;;;;;;;16.65;8.88;;;25.30;99.90;;;;;;5087777;28;20032;-83
2022/06/05 07:09:48;;;;;;;15.98;8.85;;;24.70;99.90;;;;;;5069817;28;20189;-83
2022/06/05 07:12:14;;;;;;;12.73;8.80;;;24.30;99.90;;;;;;5069930;28;20515;-82
2022/06/05 07:14:40;;;;;;;12.55;9.68;;;23.60;99.90;;;;;;5087695;28;20016;-84
2022/06/05 07:17:05;;;;;;;17.30;12.32;;;23.20;99.90;;;;;;5087036;28;20430;-83
2022/06/05 07:19:31;;;;;;;12.82;10.82;;;22.90;99.90;;;;;;5087574;28;20484;-83
2022/06/05 07:21:56;;;;;;;15.32;10.40;;;22.50;99.90;;;;;;5085972;28;20047;-84
2022/06/05 07:24:22;;;;;;;14.40;11.00;;;22.20;99.90;;;;;;5086605;28;20125;-83
2022/06/05 07:26:48;;;;;;;21.65;16.20;;;21.90;99.90;;;;;;5086623;28;20039;-82
2022/06/05 07:29:14;;;;;;;17.67;11.80;;;21.60;99.90;;;;;;5086710;28;20028;-83
2022/06/05 07:31:40;;;;;;;21.67;10.48;;;21.40;99.90;;;;;;5087716;28;20028;-84
2022/06/05 07:34:08;;;;;;;14.88;9.68;;;21.20;99.90;;;;;;5087511;28;20039;-83
2022/06/05 07:36:33;;;;;;;14.07;10.45;;;20.90;99.90;;;;;;5069202;28;20020;-82
2022/06/05 07:39:02;;;;;;;12.25;10.20;;;20.80;99.90;;;;;;5088346;28;20028;-84
2022/06/05 07:41:34;;;;;;;11.60;9.85;;;20.70;99.90;;;;;;5089201;28;20046;-84
2022/06/05 07:44:00;;;;;;;13.20;9.23;;;20.60;99.90;;;;;;5089337;28;20379;-82
2022/06/05 07:46:27;;;;;;;12.98;10.30;;;20.60;99.90;;;;;;5070519;28;20020;-84
2022/06/05 07:48:53;;;;;;;13.82;9.82;;;20.70;99.90;;;;;;5088336;28;20024;-83
2022/06/05 07:54:27;;;;;;;11.65;8.85;;;20.70;99.90;;;;;;5089125;28;20136;-83
2022/06/05 07:56:59;;;;;;;14.63;10.45;;;20.70;99.90;;;;;;5069731;28;20024;-82
2022/06/05 07:59:31;;;;;;;19.85;10.85;;;20.80;99.90;;;;;;5070328;28;20106;-83
2022/06/05 08:02:03;;;;;;;10.25;8.65;;;20.90;99.90;;;;;;5070279;28;20040;-84
2022/06/05 08:04:30;;;;;;;14.55;8.93;;;21.10;99.90;;;;;;5089020;28;20020;-83
2022/06/05 08:06:57;;;;;;;7.72;6.85;;;21.40;99.90;;;;;;5070757;28;20586;-83
2022/06/05 08:09:24;;;;;;;10.82;6.32;;;21.80;99.90;;;;;;5090336;28;20043;-81
2022/06/05 08:11:50;;;;;;;8.30;5.30;;;22.10;99.90;;;;;;5090915;28;20025;-85
2022/06/05 08:14:16;;;;;;;7.25;5.68;;;22.30;99.90;;;;;;5092934;28;20046;-85
2022/06/05 08:16:46;;;;;;;7.15;5.63;;;22.50;99.90;;;;;;5090724;28;20028;-83
2022/06/05 08:19:22;;;;;;;6.90;4.60;;;22.70;99.90;;;;;;5098217;28;20484;-84
2022/06/05 08:21:48;;;;;;;13.65;5.68;;;23.00;99.90;;;;;;5119620;27;20039;-84
2022/06/05 08:24:14;;;;;;;9.13;4.78;;;23.30;99.90;;;;;;5111501;28;20055;-83
2022/06/05 08:26:40;;;;;;;7.75;3.90;;;23.40;99.90;;;;;;5099258;28;20074;-82
2022/06/05 08:29:06;;;;;;;7.57;4.88;;;23.70;99.90;;;;;;5105478;28;20400;-82
2022/06/05 08:31:33;;;;;;;7.85;4.97;;;24.20;99.90;;;;;;5093286;28;20031;-86
2022/06/05 08:33:59;;;;;;;9.80;4.38;;;24.50;99.90;;;;;;5108266;28;20515;-85
2022/06/05 08:36:25;;;;;;;10.32;4.32;;;24.70;99.90;;;;;;5112572;28;20027;-85
2022/06/05 08:42:05;;;;;;;10.13;3.90;;;25.00;99.90;;;;;;5112266;28;20047;-84
2022/06/05 08:44:51;;;;;;;13.98;3.90;;;25.10;99.90;;;;;;5089330;28;20027;-84
2022/06/05 08:47:49;;;;;;;8.60;3.92;;;25.20;99.90;;;;;;5112109;28;20024;-84
2022/06/05 08:50:36;;;;;;;6.80;3.67;;;25.20;99.90;;;;;;5106004;28;20028;-85
2022/06/05 08:53:13;;;;;;;7.93;4.10;;;25.30;99.90;;;;;;5093969;28;20035;-85
2022/06/05 08:55:44;;;;;;;5.15;3.28;;;25.40;99.90;;;;;;5112587;28;20028;-85
2022/06/05 08:58:15;;;;;;;5.03;3.17;;;25.60;99.90;;;;;;5103736;28;20594;-84
2022/06/05 09:00:46;;;;;;;4.15;3.33;;;26.20;99.90;;;;;;5075508;28;20036;-84
2022/06/05 09:03:46;;;;;;;4.85;2.72;;;26.40;99.90;;;;;;5110409;28;20396;-84
2022/06/05 09:06:25;;;;;;;6.47;3.38;;;26.30;99.90;;;;;;5089676;28;20399;-84
2022/06/05 09:08:58;;;;;;;5.47;3.38;;;26.00;99.90;;;;;;5072813;28;20048;-84
2022/06/05 09:11:40;;;;;;;9.70;2.83;;;25.70;99.90;;;;;;5090851;28;20028;-82
2022/06/05 09:14:16;;;;;;;8.07;3.47;;;25.50;99.90;;;;;;5089931;28;20110;-82
2022/06/05 09:16:49;;;;;;;3.38;2.58;;;25.10;99.90;;;;;;5090125;28;20028;-83
2022/06/05 09:19:21;;;;;;;4.80;3.15;;;24.90;99.90;;;;;;5072485;28;20027;-83
2022/06/05 09:22:11;;;;;;;6.22;3.22;;;24.70;99.90;;;;;;5110424;28;20047;-83
2022/06/05 09:24:55;;;;;;;6.97;2.90;;;24.80;99.90;;;;;;5073612;28;20035;-83
2022/06/05 09:27:50;;;;;;;7.88;2.90;;;24.90;99.90;;;;;;5092713;28;20031;-82
2022/06/05 09:30:25;;;;;;;14.55;2.97;;;24.90;99.90;;;;;;5110211;28;20122;-84
2022/06/05 09:33:09;;;;;;;7.45;4.03;;;24.70;99.90;;;;;;5111210;28;20020;-82
2022/06/05 09:35:47;;;;;;;8.45;3.38;;;24.60;99.90;;;;;;5093066;28;20027;-82
2022/06/05 09:38:28;;;;;;;9.40;3.90;;;24.50;99.90;;;;;;5093154;28;20111;-83
2022/06/05 09:41:31;;;;;;;4.63;3.10;;;24.40;99.90;;;;;;5092182;28;20035;-84
2022/06/05 09:44:27;;;;;;;10.02;4.28;;;24.40;99.90;;;;;;5092366;28;20027;-83
2022/06/05 09:47:01;;;;;;;11.93;4.28;;;24.40;99.90;;;;;;5110145;28;20518;-83
2022/06/05 09:49:39;;;;;;;5.18;3.88;;;24.50;99.90;;;;;;5110905;28;20042;-82
2022/06/05 09:52:21;;;;;;;5.88;3.55;;;25.00;99.90;;;;;;5110400;28;20028;-83
2022/06/05 09:55:01;;;;;;;9.57;3.92;;;25.60;99.90;;;;;;5092921;28;20108;-84
2022/06/05 10:00:46;;;;;;;8.48;3.15;;;26.50;99.90;;;;;;5109533;28;20043;-84
2022/06/05 10:03:26;;;;;;;5.00;3.10;;;26.90;99.90;;;;;;5109189;28;20433;-83
2022/06/05 10:06:11;;;;;;;4.95;3.50;;;27.00;99.90;;;;;;5109484;28;20032;-83
2022/06/05 10:08:44;;;;;;;5.90;3.45;;;27.20;99.90;;;;;;5090789;28;20145;-83
2022/06/05 10:11:53;;;;;;;8.88;2.97;;;27.50;99.90;;;;;;5095445;28;20034;-83
2022/06/05 10:14:37;;;;;;;8.10;2.90;;;27.50;98.90;;;;;;5074422;28;20051;-83
2022/06/05 10:17:31;;;;;;;4.63;2.45;;;27.20;93.20;;;;;;5088692;28;20605;-83
2022/06/05 10:20:23;;;;;;;4.50;2.40;;;27.20;95.10;;;;;;5087795;28;20032;-83
2022/06/05 10:22:53;;;;;;;7.47;2.55;;;27.50;96.90;;;;;;5069252;28;20074;-83
2022/06/05 10:25:35;;;;;;;10.52;2.58;;;27.50;93.30;;;;;;5087430;28;20111;-83
2022/06/05 10:28:03;;;;;;;4.10;2.50;;;27.30;92.40;;;;;;5088523;28;20020;-83
2022/06/05 10:30:39;;;;;;;3.65;2.33;;;26.90;91.00;;;;;;5070236;28;20035;-83
2022/06/05 10:33:39;;;;;;;4.80;2.03;;;26.70;93.30;;;;;;5088882;28;20437;-83
2022/06/05 10:36:16;;;;;;;3.97;2.55;;;26.70;96.20;;;;;;5069979;28;20028;-81
2022/06/05 10:38:48;;;;;;;7.82;2.40;;;26.90;96.90;;;;;;5088686;28;20017;-80
2022/06/05 10:41:22;;;;;;;3.42;2.20;;;26.90;94.50;;;;;;5070558;28;20296;-83
2022/06/05 10:44:12;;;;;;;6.57;1.80;;;26.70;91.10;;;;;;5088175;28;20027;-82
2022/06/05 10:47:03;;;;;;;3.30;1.67;;;26.70;81.20;;;;;;5087880;28;20024;-83
2022/06/05 10:49:45;;;;;;;9.18;1.77;;;26.50;75.80;;;;;;5070369;28;20058;-83
2022/06/05 10:52:19;;;;;;;4.00;2.53;;;26.20;74.80;;;;;;5070470;28;20028;-83
2022/06/05 10:55:09;;;;;;;4.35;2.60;;;26.00;70.60;;;;;;5088781;28;20023;-83
2022/06/05 10:57:39;;;;;;;2.70;2.00;;;26.00;74.70;;;;;;5070190;28;20123;-83
2022/06/05 11:00:16;;;;;;;5.10;1.95;;;26.00;71.40;;;;;;5087930;28;20396;-83
2022/06/05 11:03:15;;;;;;;5.00;2.92;;;25.90;74.70;;;;;;5088559;28;20073;-82
2022/06/05 11:06:00;;;;;;;6.40;2.10;;;25.80;76.50;;;;;;5087980;28;20583;-82
2022/06/05 11:08:49;;;;;;;6.15;2.20;;;25.70;75.80;;;;;;5087241;28;20055;-83
2022/06/05 11:14:48;;;;;;;8.82;2.58;;;25.80;80.80;;;;;;5088551;28;20502;-82
2022/06/05 11:17:30;;;;;;;9.15;2.75;;;26.00;80.40;;;;;;5088322;28;20028;-83
2022/06/05 11:20:16;;;;;;;2.92;2.50;;;26.00;77.50;;;;;;5070740;28;20069;-83
2022/06/05 11:22:57;;;;;;;3.75;2.70;;;26.00;73.50;;;;;;5088297;28;20123;-82
2022/06/05 11:25:50;;;;;;;5.30;2.58;;;25.90;76.50;;;;;;5069967;28;20036;-82
2022/06/05 11:28:52;;;;;;;6.47;3.42;;;25.80;73.50;;;;;;5045866;28;20475;-81
2022/06/05 11:31:43;;;;;;;8.27;2.10;;;26.00;78.60;;;;;;5056637;28;20074;-81
2022/06/05 11:34:22;;;;;;;9.13;2.53;;;26.20;77.50;;;;;;5087857;28;20028;-82
2022/06/05 11:36:55;;;;;;;4.47;2.42;;;26.20;76.30;;;;;;5088067;28;20031;-81
2022/06/05 11:39:42;;;;;;;5.75;2.70;;;26.40;75.40;;;;;;5070140;28;20384;-81
2022/06/05 11:42:29;;;;;;;7.20;2.65;;;26.40;76.60;;;;;;5087716;28;20036;-81
2022/06/05 11:45:04;;;;;;;5.50;2.50;;;26.40;75.00;;;;;;5090073;28;20027;-82
2022/06/05 11:47:59;;;;;;;7.20;3.20;;;26.40;76.50;;;;;;5073302;28;20423;-80
2022/06/05 11:50:47;;;;;;;2.47;2.20;;;26.70;78.10;;;;;;5073014;28;20036;-82
2022/06/05 11:53:25;;;;;;;5.00;2.55;;;27.00;74.10;;;;;;5090183;28;20468;-82
2022/06/05 11:56:09;;;;;;;7.10;2.53;;;27.10;73.10;;;;;;5073901;28;20032;-82
2022/06/05 11:58:52;;;;;;;6.57;2.30;;;26.90;72.90;;;;;;5091624;28;20052;-81
2022/06/05 12:01:24;;;;;;;3.97;2.58;;;26.60;70.10;;;;;;5091019;28;20055;-80
2022/06/05 12:04:00;;;;;;;5.30;2.30;;;26.50;69.80;;;;;;5072724;28;20016;-82
2022/06/05 12:06:40;;;;;;;6.18;3.47;;;26.50;73.20;;;;;;5090534;28;20065;-82
2022/06/05 12:09:17;;;;;;;4.50;2.42;;;26.60;73.30;;;;;;5090194;28;20151;-81
2022/06/05 12:11:48;;;;;;;4.82;2.10;;;26.70;74.10;;;;;;5073588;28;20032;-82
2022/06/05 12:14:32;;;;;;;4.45;2.72;;;26.70;72.00;;;;;;5091170;28;20530;-81
2022/06/05 12:17:07;;;;;;;4.20;2.50;;;26.70;71.00;;;;;;5073041;28;20036;-83
2022/06/05 12:19:54;;;;;;;14.48;2.70;;;26.70;71.60;;;;;;5091550;28;20032;-82
2022/06/05 12:22:33;;;;;;;5.47;2.50;;;26.60;70.90;;;;;;5090705;28;20432;-81
2022/06/05 12:25:21;;;;;;;4.53;3.53;;;26.50;71.20;;;;;;5090752;28;20035;-81
2022/06/05 12:28:15;;;;;;;4.53;2.20;;;26.30;73.50;;;;;;5091077;28;20058;-82
2022/06/05 12:30:50;;;;;;;5.70;2.35;;;26.50;72.60;;;;;;5091084;28;20028;-82
2022/06/05 12:33:18;;;;;;;7.13;2.97;;;26.60;70.60;;;;;;5073056;28;20050;-82
2022/06/05 12:35:49;;;;;;;4.88;2.40;;;26.60;67.80;;;;;;5072713;28;20066;-82
2022/06/05 12:38:43;;;;;;;6.10;2.67;;;26.80;70.60;;;;;;5072788;28;20028;-83
2022/06/05 12:41:15;;;;;;;3.67;2.75;;;27.00;67.10;;;;;;5091197;28;20036;-82
2022/06/05 12:43:56;;;;;;;5.32;2.67;;;26.90;68.30;;;;;;5090685;28;20035;-82
2022/06/05 12:46:37;;;;;;;5.65;2.70;;;26.80;68.00;;;;;;5090419;28;20061;-82
2022/06/05 12:49:31;;;;;;;5.13;2.58;;;26.60;68.20;;;;;;5090808;28;20020;-81
2022/06/05 12:52:16;;;;;;;8.02;2.83;;;26.40;70.60;;;;;;5091022;28;20189;-82
2022/06/05 12:54:54;;;;;;;4.93;2.60;;;26.20;67.30;;;;;;5072549;28;20085;-82
2022/06/05 12:57:26;;;;;;;7.03;2.35;;;26.00;67.40;;;;;;5090087;28;20032;-82
2022/06/05 13:00:05;;;;;;;3.33;1.90;;;25.90;69.60;;;;;;5088257;28;20024;-81
2022/06/05 13:02:43;;;;;;;10.45;2.75;;;26.00;70.20;;;;;;5090689;28;20056;-82
2022/06/05 13:05:53;;;;;;;7.05;2.75;;;26.30;67.90;;;;;;5090819;28;20109;-82
2022/06/05 13:08:45;;;;;;;3.58;2.25;;;26.50;66.40;;;;;;5089789;28;20055;-81
2022/06/05 13:11:29;;;;;;;5.03;2.55;;;26.70;67.30;;;;;;5072147;28;20450;-82
2022/06/05 13:14:13;;;;;;;3.42;2.20;;;26.90;65.40;;;;;;5071264;28;20179;-83
2022/06/05 13:16:54;;;;;;;3.72;2.78;;;27.20;64.70;;;;;;5071313;28;20024;-82
2022/06/05 13:19:43;;;;;;;3.80;2.83;;;27.20;64.90;;;;;;5070504;28;20532;-83
2022/06/05 13:22:32;;;;;;;7.78;2.50;;;27.10;64.10;;;;;;5089510;28;20047;-82
2022/06/05 13:25:02;;;;;;;5.45;2.42;;;26.90;64.90;;;;;;5071713;28;20441;-82
2022/06/05 13:27:55;;;;;;;15.30;3.30;;;26.80;64.60;;;;;;5089783;28;20028;-82
2022/06/05 13:30:24;;;;;;;5.55;2.72;;;26.80;64.80;;;;;;5051211;28;20115;-82
2022/06/05 13:33:13;;;;;;;3.63;2.33;;;26.80;63.20;;;;;;5089999;28;20024;-81
2022/06/05 13:35:48;;;;;;;4.80;3.05;;;26.80;63.20;;;;;;5090223;28;20016;-82
2022/06/05 13:38:29;;;;;;;7.63;2.70;;;26.80;65.60;;;;;;5071151;28;20508;-82